sensor_id;sensor_type;location;lat;lon;timestamp;pressure;altitude;pressure_sealevel;temperature;humidity
55656;BME280;41530;52.382;5.270;2023-03-11T00:01:13;100892.78;;;12.37;47.65
55656;BME280;41530;52.382;5.270;2023-03-11T00:03:40;100884.16;;;12.35;47.47
55656;BME280;41530;52.382;5.270;2023-03-11T00:06:07;100892.91;;;12.35;47.60
55656;BME280;41530;52.382;5.270;2023-03-11T00:08:33;100890.38;;;12.34;47.26
55656;BME280;41530;52.382;5.270;2023-03-11T00:11:00;100903.47;;;12.35;47.94
55656;BME280;41530;52.382;5.270;2023-03-11T00:13:28;100900.94;;;12.34;47.85
55656;BME280;41530;52.382;5.270;2023-03-11T00:15:55;100908.84;;;12.34;47.84
55656;BME280;41530;52.382;5.270;2023-03-11T00:18:24;100906.31;;;12.32;47.78
55656;BME280;41530;52.382;5.270;2023-03-11T00:20:54;100911.59;;;12.32;47.63
55656;BME280;41530;52.382;5.270;2023-03-11T00:23:21;100914.25;;;12.32;47.94
55656;BME280;41530;52.382;5.270;2023-03-11T00:25:48;100921.31;;;12.32;47.66
55656;BME280;41530;52.382;5.270;2023-03-11T00:28:15;100930.19;;;12.31;47.76
55656;BME280;41530;52.382;5.270;2023-03-11T00:30:43;100927.53;;;12.31;47.61
55656;BME280;41530;52.382;5.270;2023-03-11T00:33:12;100931.13;;;12.30;47.62
55656;BME280;41530;52.382;5.270;2023-03-11T00:35:40;100928.59;;;12.28;47.56
55656;BME280;41530;52.382;5.270;2023-03-11T00:38:10;100939.16;;;12.28;47.76
55656;BME280;41530;52.382;5.270;2023-03-11T00:40:37;100934.84;;;12.27;47.39
55656;BME280;41530;52.382;5.270;2023-03-11T00:43:04;100942.75;;;12.27;47.64
55656;BME280;41530;52.382;5.270;2023-03-11T00:45:31;100956.03;;;12.26;48.09
55656;BME280;41530;52.382;5.270;2023-03-11T00:47:58;100959.53;;;12.26;47.70
55656;BME280;41530;52.382;5.270;2023-03-11T00:50:30;100952.56;;;12.25;47.83
55656;BME280;41530;52.382;5.270;2023-03-11T00:52:58;100957.84;;;12.25;47.66
55656;BME280;41530;52.382;5.270;2023-03-11T00:55:27;100960.63;;;12.24;47.63
55656;BME280;41530;52.382;5.270;2023-03-11T00:57:56;100963.25;;;12.24;47.92
55656;BME280;41530;52.382;5.270;2023-03-11T01:00:24;100967.69;;;12.23;47.75
55656;BME280;41530;52.382;5.270;2023-03-11T01:02:52;100971.28;;;12.22;47.50
55656;BME280;41530;52.382;5.270;2023-03-11T01:05:22;100966.00;;;12.22;47.24
55656;BME280;41530;52.382;5.270;2023-03-11T01:07:49;100972.22;;;12.21;47.41
55656;BME280;41530;52.382;5.270;2023-03-11T01:10:16;100974.03;;;12.21;47.42
55656;BME280;41530;52.382;5.270;2023-03-11T01:12:43;100977.63;;;12.20;47.35
55656;BME280;41530;52.382;5.270;2023-03-11T01:15:17;100978.56;;;12.19;47.18
55656;BME280;41530;52.382;5.270;2023-03-11T01:17:44;100973.28;;;12.19;47.64
55656;BME280;41530;52.382;5.270;2023-03-11T01:20:12;100980.38;;;12.18;47.47
55656;BME280;41530;52.382;5.270;2023-03-11T01:22:39;100976.03;;;12.17;47.23
55656;BME280;41530;52.382;5.270;2023-03-11T01:25:05;100979.63;;;12.16;47.36
55656;BME280;41530;52.382;5.270;2023-03-11T01:27:32;100984.91;;;12.16;47.44
55656;BME280;41530;52.382;5.270;2023-03-11T01:29:59;100985.75;;;12.17;47.65
55656;BME280;41530;52.382;5.270;2023-03-11T01:32:25;100983.22;;;12.15;47.26
55656;BME280;41530;52.382;5.270;2023-03-11T01:34:52;100991.97;;;12.16;47.13
55656;BME280;41530;52.382;5.270;2023-03-11T01:37:18;101000.84;;;12.14;46.78
55656;BME280;41530;52.382;5.270;2023-03-11T01:39:46;100998.19;;;12.14;46.97
55656;BME280;41530;52.382;5.270;2023-03-11T01:42:13;100993.19;;;12.11;46.73
55656;BME280;41530;52.382;5.270;2023-03-11T01:44:39;101012.44;;;12.12;46.71
55656;BME280;41530;52.382;5.270;2023-03-11T01:49:35;101008.25;;;12.09;47.08
55656;BME280;41530;52.382;5.270;2023-03-11T01:52:07;101008.38;;;12.08;46.60
55656;BME280;41530;52.382;5.270;2023-03-11T01:54:37;101004.16;;;12.05;46.66
55656;BME280;41530;52.382;5.270;2023-03-11T01:57:06;100999.84;;;12.04;46.41
55656;BME280;41530;52.382;5.270;2023-03-11T01:59:46;100994.56;;;12.04;46.06
55656;BME280;41530;52.382;5.270;2023-03-11T02:04:44;101009.53;;;12.04;46.57
55656;BME280;41530;52.382;5.270;2023-03-11T02:07:13;101008.69;;;12.03;46.57
55656;BME280;41530;52.382;5.270;2023-03-11T02:09:40;101007.00;;;12.02;46.54
55656;BME280;41530;52.382;5.270;2023-03-11T02:12:08;101012.28;;;12.02;46.75
55656;BME280;41530;52.382;5.270;2023-03-11T02:14:41;101010.59;;;12.01;46.19
55656;BME280;41530;52.382;5.270;2023-03-11T02:17:09;101012.41;;;12.01;46.48
55656;BME280;41530;52.382;5.270;2023-03-11T02:19:57;101014.19;;;12.00;46.22
55656;BME280;41530;52.382;5.270;2023-03-11T02:22:25;101017.78;;;11.99;46.24
55656;BME280;41530;52.382;5.270;2023-03-11T02:25:07;101029.31;;;11.98;45.84
55656;BME280;41530;52.382;5.270;2023-03-11T02:27:39;101021.41;;;11.98;46.17
55656;BME280;41530;52.382;5.270;2023-03-11T02:30:11;101017.06;;;11.97;46.18
55656;BME280;41530;52.382;5.270;2023-03-11T02:32:39;101014.44;;;11.97;46.04
55656;BME280;41530;52.382;5.270;2023-03-11T02:35:06;101014.66;;;11.94;46.07
55656;BME280;41530;52.382;5.270;2023-03-11T02:37:33;101011.28;;;11.92;45.91
55656;BME280;41530;52.382;5.270;2023-03-11T02:42:54;100999.28;;;11.88;45.78
55656;BME280;41530;52.382;5.270;2023-03-11T02:45:24;101008.75;;;11.91;45.92
55656;BME280;41530;52.382;5.270;2023-03-11T02:47:52;101008.97;;;11.88;46.05
55656;BME280;41530;52.382;5.270;2023-03-11T02:50:20;101016.78;;;11.89;46.17
55656;BME280;41530;52.382;5.270;2023-03-11T02:52:48;101023.50;;;11.93;46.69
55656;BME280;41530;52.382;5.270;2023-03-11T02:55:15;101011.38;;;11.91;46.25
55656;BME280;41530;52.382;5.270;2023-03-11T02:57:43;101011.28;;;11.92;46.51
55656;BME280;41530;52.382;5.270;2023-03-11T03:00:11;101007.19;;;11.88;46.39
55656;BME280;41530;52.382;5.270;2023-03-11T03:02:41;101005.50;;;11.87;46.40
55656;BME280;41530;52.382;5.270;2023-03-11T03:05:09;101014.88;;;11.91;46.69
55656;BME280;41530;52.382;5.270;2023-03-11T03:07:36;101011.59;;;11.88;46.75
55656;BME280;41530;52.382;5.270;2023-03-11T03:10:05;101011.97;;;11.83;47.07
55656;BME280;41530;52.382;5.270;2023-03-11T03:12:32;101030.91;;;11.88;46.91
55656;BME280;41530;52.382;5.270;2023-03-11T03:14:58;101028.47;;;11.85;46.88
55656;BME280;41530;52.382;5.270;2023-03-11T03:17:25;101031.13;;;11.85;46.96
55656;BME280;41530;52.382;5.270;2023-03-11T03:19:52;101032.81;;;11.86;46.88
55656;BME280;41530;52.382;5.270;2023-03-11T03:22:18;101037.97;;;11.88;46.72
55656;BME280;41530;52.382;5.270;2023-03-11T03:24:45;101040.59;;;11.88;46.68
55656;BME280;41530;52.382;5.270;2023-03-11T03:27:12;101044.09;;;11.88;46.86
55656;BME280;41530;52.382;5.270;2023-03-11T03:29:38;101042.66;;;11.84;46.76
55656;BME280;41530;52.382;5.270;2023-03-11T03:32:05;101047.91;;;11.84;46.75
55656;BME280;41530;52.382;5.270;2023-03-11T03:34:32;101056.66;;;11.85;46.88
55656;BME280;41530;52.382;5.270;2023-03-11T03:36:58;101056.97;;;11.80;47.07
55656;BME280;41530;52.382;5.270;2023-03-11T03:39:25;101070.66;;;11.85;46.70
55656;BME280;41530;52.382;5.270;2023-03-11T03:41:55;101072.47;;;11.85;46.71
55656;BME280;41530;52.382;5.270;2023-03-11T03:44:21;101070.78;;;11.84;46.80
55656;BME280;41530;52.382;5.270;2023-03-11T03:46:48;101074.38;;;11.83;46.86
55656;BME280;41530;52.382;5.270;2023-03-11T03:49:15;101068.47;;;11.79;46.74
55656;BME280;41530;52.382;5.270;2023-03-11T03:51:41;101085.88;;;11.82;47.08
55656;BME280;41530;52.382;5.270;2023-03-11T03:54:08;101087.75;;;11.80;46.85
55656;BME280;41530;52.382;5.270;2023-03-11T03:56:34;101089.47;;;11.81;47.24
55656;BME280;41530;52.382;5.270;2023-03-11T03:59:01;101092.09;;;11.81;47.12
55656;BME280;41530;52.382;5.270;2023-03-11T04:01:28;101099.91;;;11.82;46.90
55656;BME280;41530;52.382;5.270;2023-03-11T04:03:54;101103.38;;;11.83;47.00
55656;BME280;41530;52.382;5.270;2023-03-11T04:06:23;101105.44;;;11.90;47.02
55656;BME280;41530;52.382;5.270;2023-03-11T04:08:51;101099.44;;;11.88;46.65
55656;BME280;41530;52.382;5.270;2023-03-11T04:11:18;101109.66;;;11.93;46.86
55656;BME280;41530;52.382;5.270;2023-03-11T04:13:45;101105.34;;;11.92;46.65
55656;BME280;41530;52.382;5.270;2023-03-11T04:16:15;101103.22;;;11.97;46.77
55656;BME280;41530;52.382;5.270;2023-03-11T04:18:43;101102.41;;;11.96;46.66
55656;BME280;41530;52.382;5.270;2023-03-11T04:21:09;101106.56;;;11.99;46.66
55656;BME280;41530;52.382;5.270;2023-03-11T04:23:36;101109.09;;;12.00;46.81
55656;BME280;41530;52.382;5.270;2023-03-11T04:26:03;101105.75;;;11.98;46.48
55656;BME280;41530;52.382;5.270;2023-03-11T04:28:30;101111.53;;;12.03;46.96
55656;BME280;41530;52.382;5.270;2023-03-11T04:30:56;101122.81;;;12.05;46.64
55656;BME280;41530;52.382;5.270;2023-03-11T04:33:23;101106.38;;;12.02;46.53
55656;BME280;41530;52.382;5.270;2023-03-11T04:35:50;101118.38;;;12.06;46.75
55656;BME280;41530;52.382;5.270;2023-03-11T04:38:17;101113.13;;;12.06;46.59
55656;BME280;41530;52.382;5.270;2023-03-11T04:40:43;101094.47;;;11.96;46.73
55656;BME280;41530;52.382;5.270;2023-03-11T04:43:10;101120.91;;;12.07;46.73
55656;BME280;41530;52.382;5.270;2023-03-11T04:45:37;101119.13;;;12.08;46.64
55656;BME280;41530;52.382;5.270;2023-03-11T04:48:04;101130.31;;;12.11;46.72
55656;BME280;41530;52.382;5.270;2023-03-11T04:50:31;101124.28;;;12.09;46.49
55656;BME280;41530;52.382;5.270;2023-03-11T04:52:58;101129.31;;;12.12;46.75
55656;BME280;41530;52.382;5.270;2023-03-11T04:55:24;101124.06;;;12.12;46.61
55656;BME280;41530;52.382;5.270;2023-03-11T04:57:51;101132.69;;;12.14;46.53
55656;BME280;41530;52.382;5.270;2023-03-11T05:00:18;101128.63;;;12.10;46.66
55656;BME280;41530;52.382;5.270;2023-03-11T05:02:50;101137.03;;;12.16;46.66
55656;BME280;41530;52.382;5.270;2023-03-11T05:05:16;101133.53;;;12.15;46.51
55656;BME280;41530;52.382;5.270;2023-03-11T05:07:47;101132.69;;;12.14;46.41
55656;BME280;41530;52.382;5.270;2023-03-11T05:10:15;101133.66;;;12.13;46.80
55656;BME280;41530;52.382;5.270;2023-03-11T05:12:48;101122.16;;;12.14;46.58
55656;BME280;41530;52.382;5.270;2023-03-11T05:15:15;101120.88;;;12.20;46.51
55656;BME280;41530;52.382;5.270;2023-03-11T05:17:42;101118.56;;;12.16;46.39
55656;BME280;41530;52.382;5.270;2023-03-11T05:20:09;101128.06;;;12.18;46.68
55656;BME280;41530;52.382;5.270;2023-03-11T05:22:36;101144.16;;;12.26;46.58
55656;BME280;41530;52.382;5.270;2023-03-11T05:25:04;101142.72;;;12.22;46.34
55656;BME280;41530;52.382;5.270;2023-03-11T05:27:31;101132.28;;;12.21;46.72
55656;BME280;41530;52.382;5.270;2023-03-11T05:29:57;101146.69;;;12.28;46.35
55656;BME280;41530;52.382;5.270;2023-03-11T05:32:24;101142.63;;;12.24;46.68
55656;BME280;41530;52.382;5.270;2023-03-11T05:34:51;101144.16;;;12.26;46.76
55656;BME280;41530;52.382;5.270;2023-03-11T05:37:18;101143.47;;;12.24;46.56
55656;BME280;41530;52.382;5.270;2023-03-11T05:39:44;101144.41;;;12.23;46.25
55656;BME280;41530;52.382;5.270;2023-03-11T05:42:11;101157.25;;;12.28;46.44
55656;BME280;41530;52.382;5.270;2023-03-11T05:44:37;101162.53;;;12.28;46.42
55656;BME280;41530;52.382;5.270;2023-03-11T05:47:04;101154.72;;;12.26;46.43
55656;BME280;41530;52.382;5.270;2023-03-11T05:49:31;101162.63;;;12.26;46.63
55656;BME280;41530;52.382;5.270;2023-03-11T05:51:57;101161.78;;;12.26;46.10
55656;BME280;41530;52.382;5.270;2023-03-11T05:54:24;101160.94;;;12.25;46.16
55656;BME280;41530;52.382;5.270;2023-03-11T05:56:51;101167.06;;;12.26;46.28
55656;BME280;41530;52.382;5.270;2023-03-11T05:59:18;101161.50;;;12.18;46.40
55656;BME280;41530;52.382;5.270;2023-03-11T06:01:44;101175.22;;;12.23;46.16
55656;BME280;41530;52.382;5.270;2023-03-11T06:04:11;101169.00;;;12.24;46.52
55656;BME280;41530;52.382;5.270;2023-03-11T06:06:39;101178.81;;;12.22;46.16
55656;BME280;41530;52.382;5.270;2023-03-11T06:09:11;101188.28;;;12.24;45.96
55656;BME280;41530;52.382;5.270;2023-03-11T06:11:38;101184.28;;;12.19;46.32
55656;BME280;41530;52.382;5.270;2023-03-11T06:14:04;101196.31;;;12.23;46.37
55656;BME280;41530;52.382;5.270;2023-03-11T06:16:31;101187.66;;;12.21;46.21
55656;BME280;41530;52.382;5.270;2023-03-11T06:18:58;101194.72;;;12.20;46.35
55656;BME280;41530;52.382;5.270;2023-03-11T06:21:27;101199.78;;;12.23;46.40
55656;BME280;41530;52.382;5.270;2023-03-11T06:23:54;101195.78;;;12.18;46.10
55656;BME280;41530;52.382;5.270;2023-03-11T06:26:22;101202.75;;;12.19;46.08
55656;BME280;41530;52.382;5.270;2023-03-11T06:28:49;101199.91;;;12.22;46.07
55656;BME280;41530;52.382;5.270;2023-03-11T06:31:27;101205.19;;;12.22;45.84
55656;BME280;41530;52.382;5.270;2023-03-11T06:33:54;101200.22;;;12.17;46.53
55656;BME280;41530;52.382;5.270;2023-03-11T06:36:24;101200.00;;;12.20;46.02
55656;BME280;41530;52.382;5.270;2023-03-11T06:38:52;101207.72;;;12.23;46.45
55656;BME280;41530;52.382;5.270;2023-03-11T06:41:20;101208.03;;;12.19;46.36
55656;BME280;41530;52.382;5.270;2023-03-11T06:43:46;101203.81;;;12.16;46.08
55656;BME280;41530;52.382;5.270;2023-03-11T06:46:18;101213.09;;;12.22;45.80
55656;BME280;41530;52.382;5.270;2023-03-11T06:48:46;101209.72;;;12.20;46.38
55656;BME280;41530;52.382;5.270;2023-03-11T06:51:12;101220.78;;;12.25;46.29
55656;BME280;41530;52.382;5.270;2023-03-11T06:53:39;101214.78;;;12.23;46.31
55656;BME280;41530;52.382;5.270;2023-03-11T06:56:08;101223.19;;;12.28;45.91
55656;BME280;41530;52.382;5.270;2023-03-11T06:58:36;101217.19;;;12.26;45.93
55656;BME280;41530;52.382;5.270;2023-03-11T07:01:07;101220.44;;;12.29;46.25
55656;BME280;41530;52.382;5.270;2023-03-11T07:03:33;101212.63;;;12.28;46.00
55656;BME280;41530;52.382;5.270;2023-03-11T07:06:00;101244.16;;;12.42;45.68
55656;BME280;41530;52.382;5.270;2023-03-11T07:08:28;101243.84;;;12.46;45.95
55656;BME280;41530;52.382;5.270;2023-03-11T07:11:05;101249.66;;;12.52;45.48
55656;BME280;41530;52.382;5.270;2023-03-11T07:13:33;101245.94;;;12.54;46.21
55656;BME280;41530;52.382;5.270;2023-03-11T07:18:31;101255.91;;;12.74;45.92
55656;BME280;41530;52.382;5.270;2023-03-11T07:20:58;101255.97;;;12.85;46.17
55656;BME280;41530;52.382;5.270;2023-03-11T07:23:24;101247.84;;;12.89;46.22
55656;BME280;41530;52.382;5.270;2023-03-11T07:25:51;101256.88;;;12.97;46.24
55656;BME280;41530;52.382;5.270;2023-03-11T07:28:18;101261.47;;;13.06;45.62
55656;BME280;41530;52.382;5.270;2023-03-11T07:30:46;101270.03;;;13.10;45.55
55656;BME280;41530;52.382;5.270;2023-03-11T07:33:14;101261.81;;;13.14;45.29
55656;BME280;41530;52.382;5.270;2023-03-11T07:35:41;101269.25;;;13.20;45.43
55656;BME280;41530;52.382;5.270;2023-03-11T07:38:08;101274.09;;;13.27;45.50
55656;BME280;41530;52.382;5.270;2023-03-11T07:40:35;101261.97;;;13.24;45.06
55656;BME280;41530;52.382;5.270;2023-03-11T07:43:02;101270.16;;;13.32;44.64
55656;BME280;41530;52.382;5.270;2023-03-11T07:45:28;101257.91;;;13.31;44.29
55656;BME280;41530;52.382;5.270;2023-03-11T07:47:55;101264.84;;;13.32;44.29
55656;BME280;41530;52.382;5.270;2023-03-11T07:50:21;101262.09;;;13.34;43.91
55656;BME280;41530;52.382;5.270;2023-03-11T07:52:48;101269.47;;;13.41;43.76
55656;BME280;41530;52.382;5.270;2023-03-11T07:55:15;101266.94;;;13.40;43.65
55656;BME280;41530;52.382;5.270;2023-03-11T07:57:41;101271.75;;;13.46;43.78
55656;BME280;41530;52.382;5.270;2023-03-11T08:00:09;101269.84;;;13.48;43.46
55656;BME280;41530;52.382;5.270;2023-03-11T08:02:36;101281.88;;;13.52;43.53
55656;BME280;41530;52.382;5.270;2023-03-11T08:05:03;101292.81;;;13.59;43.65
55656;BME280;41530;52.382;5.270;2023-03-11T08:07:30;101288.28;;;13.61;43.52
55656;BME280;41530;52.382;5.270;2023-03-11T08:09:57;101287.31;;;13.62;43.65
55656;BME280;41530;52.382;5.270;2023-03-11T08:12:24;101286.25;;;13.64;43.44
55656;BME280;41530;52.382;5.270;2023-03-11T08:14:51;101296.38;;;13.70;43.32
55656;BME280;41530;52.382;5.270;2023-03-11T08:17:17;101306.59;;;13.75;43.13
55656;BME280;41530;52.382;5.270;2023-03-11T08:19:44;101303.72;;;13.78;42.84
55656;BME280;41530;52.382;5.270;2023-03-11T08:22:11;101312.84;;;13.85;43.03
55656;BME280;41530;52.382;5.270;2023-03-11T08:24:37;101302.28;;;13.85;42.80
55656;BME280;41530;52.382;5.270;2023-03-11T08:27:04;101310.81;;;13.88;42.77
55656;BME280;41530;52.382;5.270;2023-03-11T08:29:31;101304.69;;;13.88;43.05
55656;BME280;41530;52.382;5.270;2023-03-11T08:31:57;101311.22;;;13.95;43.06
55656;BME280;41530;52.382;5.270;2023-03-11T08:34:24;101316.38;;;13.97;42.97
55656;BME280;41530;52.382;5.270;2023-03-11T08:36:53;101311.56;;;14.02;42.78
55656;BME280;41530;52.382;5.270;2023-03-11T08:39:19;101318.31;;;14.06;43.00
55656;BME280;41530;52.382;5.270;2023-03-11T08:41:46;101319.28;;;14.05;42.73
55656;BME280;41530;52.382;5.270;2023-03-11T08:44:12;101311.34;;;14.05;42.89
55656;BME280;41530;52.382;5.270;2023-03-11T08:46:39;101313.53;;;14.11;42.79
55656;BME280;41530;52.382;5.270;2023-03-11T08:49:06;101318.94;;;14.20;42.97
55656;BME280;41530;52.382;5.270;2023-03-11T08:51:33;101316.19;;;14.22;43.20
55656;BME280;41530;52.382;5.270;2023-03-11T08:54:01;101326.41;;;14.26;43.17
55656;BME280;41530;52.382;5.270;2023-03-11T08:56:28;101333.75;;;14.34;43.73
55656;BME280;41530;52.382;5.270;2023-03-11T08:58:55;101326.66;;;14.35;43.45
55656;BME280;41530;52.382;5.270;2023-03-11T09:01:21;101338.00;;;14.48;43.49
55656;BME280;41530;52.382;5.270;2023-03-11T09:03:49;101328.72;;;14.53;43.69
55656;BME280;41530;52.382;5.270;2023-03-11T09:06:16;101338.84;;;14.59;43.41
55656;BME280;41530;52.382;5.270;2023-03-11T09:08:43;101343.28;;;14.70;43.69
55656;BME280;41530;52.382;5.270;2023-03-11T09:11:10;101341.88;;;14.77;43.51
55656;BME280;41530;52.382;5.270;2023-03-11T09:13:39;101344.84;;;14.84;43.38
55656;BME280;41530;52.382;5.270;2023-03-11T09:16:10;101346.88;;;14.91;43.24
55656;BME280;41530;52.382;5.270;2023-03-11T09:18:37;101342.66;;;15.00;43.58
55656;BME280;41530;52.382;5.270;2023-03-11T09:21:04;101344.44;;;15.11;43.49
55656;BME280;41530;52.382;5.270;2023-03-11T09:23:31;101348.31;;;15.18;43.40
55656;BME280;41530;52.382;5.270;2023-03-11T09:25:58;101341.66;;;15.23;43.27
55656;BME280;41530;52.382;5.270;2023-03-11T09:28:24;101344.94;;;15.16;43.43
55656;BME280;41530;52.382;5.270;2023-03-11T09:30:51;101343.69;;;15.20;43.31
55656;BME280;41530;52.382;5.270;2023-03-11T09:33:17;101349.97;;;15.19;43.54
55656;BME280;41530;52.382;5.270;2023-03-11T09:35:44;101342.84;;;15.19;43.24
55656;BME280;41530;52.382;5.270;2023-03-11T09:38:11;101345.25;;;15.22;43.57
55656;BME280;41530;52.382;5.270;2023-03-11T09:40:53;101346.34;;;15.20;43.07
55656;BME280;41530;52.382;5.270;2023-03-11T09:46:18;101347.47;;;15.17;43.11
55656;BME280;41530;52.382;5.270;2023-03-11T09:49:02;101349.38;;;15.15;43.23
55656;BME280;41530;52.382;5.270;2023-03-11T09:51:45;101347.69;;;15.14;43.61
55656;BME280;41530;52.382;5.270;2023-03-11T09:54:17;101344.56;;;15.09;43.90
55656;BME280;41530;52.382;5.270;2023-03-11T09:56:43;101349.41;;;15.04;43.91
55656;BME280;41530;52.382;5.270;2023-03-11T09:59:14;101353.88;;;15.04;43.94
55656;BME280;41530;52.382;5.270;2023-03-11T10:01:44;101357.00;;;14.97;44.23
55656;BME280;41530;52.382;5.270;2023-03-11T10:04:17;101360.38;;;14.88;44.38
55656;BME280;41530;52.382;5.270;2023-03-11T10:06:46;101351.09;;;14.83;44.64
55656;BME280;41530;52.382;5.270;2023-03-11T10:14:45;101356.44;;;14.60;44.93
55656;BME280;41530;52.382;5.270;2023-03-11T10:17:44;101360.38;;;14.55;45.08
55656;BME280;41530;52.382;5.270;2023-03-11T10:20:14;101359.06;;;14.49;45.60
55656;BME280;41530;52.382;5.270;2023-03-11T10:23:08;101355.94;;;14.44;45.36
55656;BME280;41530;52.382;5.270;2023-03-11T10:25:55;101356.28;;;14.40;45.62
55656;BME280;41530;52.382;5.270;2023-03-11T10:28:49;101352.06;;;14.37;45.74
55656;BME280;41530;52.382;5.270;2023-03-11T10:36:19;101357.09;;;14.29;45.84
55656;BME280;41530;52.382;5.270;2023-03-11T10:38:51;101359.84;;;14.27;45.96
55656;BME280;41530;52.382;5.270;2023-03-11T10:44:21;101364.66;;;14.22;45.97
55656;BME280;41530;52.382;5.270;2023-03-11T10:46:49;101362.25;;;14.19;46.01
55656;BME280;41530;52.382;5.270;2023-03-11T10:49:17;101369.97;;;14.22;46.15
55656;BME280;41530;52.382;5.270;2023-03-11T10:51:46;101376.22;;;14.21;46.22
55656;BME280;41530;52.382;5.270;2023-03-11T10:54:28;101371.88;;;14.20;45.94
55656;BME280;41530;52.382;5.270;2023-03-11T10:57:01;101373.69;;;14.20;46.39
55656;BME280;41530;52.382;5.270;2023-03-11T10:59:33;101359.22;;;14.13;46.15
55656;BME280;41530;52.382;5.270;2023-03-11T11:05:30;101375.59;;;14.18;46.29
55656;BME280;41530;52.382;5.270;2023-03-11T11:08:14;101373.91;;;14.17;46.21
55656;BME280;41530;52.382;5.270;2023-03-11T11:10:50;101385.31;;;14.17;46.27
55656;BME280;41530;52.382;5.270;2023-03-11T11:13:20;101385.31;;;14.17;46.39
55656;BME280;41530;52.382;5.270;2023-03-11T11:15:53;101383.53;;;14.18;46.42
55656;BME280;41530;52.382;5.270;2023-03-11T11:19:29;101383.63;;;14.16;46.40
55656;BME280;41530;52.382;5.270;2023-03-11T11:21:49;101386.28;;;14.16;46.72
55656;BME280;41530;52.382;5.270;2023-03-11T11:24:22;101390.63;;;14.17;47.15
55656;BME280;41530;52.382;5.270;2023-03-11T11:27:16;101375.34;;;14.10;47.01
55656;BME280;41530;52.382;5.270;2023-03-11T11:29:45;101391.34;;;14.19;47.15
55656;BME280;41530;52.382;5.270;2023-03-11T11:34:56;101391.84;;;14.24;47.09
55656;BME280;41530;52.382;5.270;2023-03-11T11:37:25;101390.03;;;14.25;47.23
55656;BME280;41530;52.382;5.270;2023-03-11T11:40:06;101396.03;;;14.27;47.69
55656;BME280;41530;52.382;5.270;2023-03-11T11:43:31;101387.38;;;14.25;48.62
55656;BME280;41530;52.382;5.270;2023-03-11T11:45:59;101382.59;;;14.30;47.93
55656;BME280;41530;52.382;5.270;2023-03-11T11:48:46;101390.19;;;14.35;48.59
55656;BME280;41530;52.382;5.270;2023-03-11T11:51:30;101380.56;;;14.34;48.94
55656;BME280;41530;52.382;5.270;2023-03-11T11:54:04;101376.84;;;14.36;49.66
55656;BME280;41530;52.382;5.270;2023-03-11T11:56:34;101386.59;;;14.36;49.70
55656;BME280;41530;52.382;5.270;2023-03-11T11:59:00;101383.94;;;14.36;49.46
55656;BME280;41530;52.382;5.270;2023-03-11T12:01:39;101375.88;;;14.37;49.18
55656;BME280;41530;52.382;5.270;2023-03-11T12:06:49;101371.28;;;14.39;50.07
55656;BME280;41530;52.382;5.270;2023-03-11T12:09:27;101368.78;;;14.38;49.51
55656;BME280;41530;52.382;5.270;2023-03-11T12:17:04;101366.88;;;14.40;49.79
55656;BME280;41530;52.382;5.270;2023-03-11T12:27:53;101369.00;;;14.35;48.66
55656;BME280;41530;52.382;5.270;2023-03-11T12:30:27;101365.28;;;14.37;49.32
55656;BME280;41530;52.382;5.270;2023-03-11T12:32:59;101366.94;;;14.38;49.55
55656;BME280;41530;52.382;5.270;2023-03-11T12:35:28;101350.09;;;14.28;49.41
55656;BME280;41530;52.382;5.270;2023-03-11T12:46:00;101370.59;;;14.37;49.56
55656;BME280;41530;52.382;5.270;2023-03-11T12:48:42;101369.59;;;14.38;49.87
55656;BME280;41530;52.382;5.270;2023-03-11T12:53:53;101369.84;;;14.35;50.16
55656;BME280;41530;52.382;5.270;2023-03-11T12:56:23;101363.34;;;14.39;50.09
55656;BME280;41530;52.382;5.270;2023-03-11T13:04:57;101355.41;;;14.39;50.32
55656;BME280;41530;52.382;5.270;2023-03-11T13:12:47;101350.28;;;14.49;51.18
55656;BME280;41530;52.382;5.270;2023-03-11T13:17:58;101358.34;;;14.58;51.41
55656;BME280;41530;52.382;5.270;2023-03-11T13:28:23;101356.31;;;14.73;51.89
55656;BME280;41530;52.382;5.270;2023-03-11T13:31:19;101357.88;;;14.76;52.05
55656;BME280;41530;52.382;5.270;2023-03-11T13:41:57;101359.66;;;14.86;51.73
55656;BME280;41530;52.382;5.270;2023-03-11T13:44:38;101349.31;;;14.83;51.88
55656;BME280;41530;52.382;5.270;2023-03-11T13:47:09;101360.00;;;14.93;51.64
55656;BME280;41530;52.382;5.270;2023-03-11T13:52:13;101361.22;;;15.00;51.96
55656;BME280;41530;52.382;5.270;2023-03-11T13:57:30;101358.31;;;15.03;52.06
55656;BME280;41530;52.382;5.270;2023-03-11T14:00:15;101364.31;;;15.05;51.74
55656;BME280;41530;52.382;5.270;2023-03-11T14:03:10;101378.78;;;15.12;51.59
55656;BME280;41530;52.382;5.270;2023-03-11T14:05:36;101375.16;;;15.13;51.56
55656;BME280;41530;52.382;5.270;2023-03-11T14:13:45;101369.63;;;15.16;52.06
55656;BME280;41530;52.382;5.270;2023-03-11T14:16:36;101376.22;;;15.22;51.61
55656;BME280;41530;52.382;5.270;2023-03-11T14:19:14;101364.91;;;15.20;51.63
55656;BME280;41530;52.382;5.270;2023-03-11T14:21:42;101371.88;;;15.21;51.39
55656;BME280;41530;52.382;5.270;2023-03-11T14:24:21;101380.09;;;15.18;51.58
55656;BME280;41530;52.382;5.270;2023-03-11T14:26:50;101381.91;;;15.17;51.07
55656;BME280;41530;52.382;5.270;2023-03-11T14:29:36;101386.22;;;15.18;51.07
55656;BME280;41530;52.382;5.270;2023-03-11T14:32:32;101395.00;;;15.19;51.17
55656;BME280;41530;52.382;5.270;2023-03-11T14:34:59;101389.97;;;15.16;51.20
55656;BME280;41530;52.382;5.270;2023-03-11T14:37:30;101402.28;;;15.17;50.41
55656;BME280;41530;52.382;5.270;2023-03-11T14:39:57;101368.09;;;15.03;47.42
55656;BME280;41530;52.382;5.270;2023-03-11T14:42:27;101386.63;;;15.03;47.52
55656;BME280;41530;52.382;5.270;2023-03-11T14:45:02;101383.72;;;15.06;50.07